sensor_id;sensor_type;location;lat;lon;timestamp;P1;P4;P2;P0;N10;N4;N25;N1;N05;TS
71804;SPS30;59654;52.216;5.616;2023-12-20T00:00:00;4.09;3.70;2.94;1.91;15.36;15.32;15.14;14.16;10.77;0.79
71804;SPS30;59654;52.216;5.616;2023-12-20T00:00:31;3.70;3.35;2.67;1.76;14.11;14.08;13.91;13.04;9.97;0.77
71804;SPS30;59654;52.216;5.616;2023-12-20T00:01:03;3.92;3.55;2.84;1.87;15.03;15.00;14.83;13.91;10.65;0.76
71804;SPS30;59654;52.216;5.616;2023-12-20T00:01:34;4.81;4.35;3.46;2.26;18.18;18.13;17.92;16.78;12.80;0.77
71804;SPS30;59654;52.216;5.616;2023-12-20T00:02:05;5.68;5.13;4.07;2.64;21.23;21.18;20.92;19.56;14.87;0.76
71804;SPS30;59654;52.216;5.616;2023-12-20T00:02:36;4.61;4.17;3.32;2.16;17.33;17.29;17.09;15.98;12.17;0.76
71804;SPS30;59654;52.216;5.616;2023-12-20T00:03:07;4.83;4.37;3.47;2.26;18.10;18.06;17.85;16.68;12.69;0.77
71804;SPS30;59654;52.216;5.616;2023-12-20T00:03:38;5.51;4.99;3.95;2.56;20.57;20.52;20.27;18.94;14.39;0.77
71804;SPS30;59654;52.216;5.616;2023-12-20T00:04:09;4.36;3.94;3.12;2.01;16.17;16.13;15.93;14.88;11.28;0.77
71804;SPS30;59654;52.216;5.616;2023-12-20T00:04:40;3.92;3.54;2.80;1.80;14.48;14.44;14.27;13.31;10.08;0.77
71804;SPS30;59654;52.216;5.616;2023-12-20T00:05:10;4.36;3.94;3.10;1.98;15.89;15.86;15.66;14.58;11.00;0.78
71804;SPS30;59654;52.216;5.616;2023-12-20T00:05:42;4.43;3.98;3.11;1.95;15.66;15.62;15.41;14.29;10.68;0.80
71804;SPS30;59654;52.216;5.616;2023-12-20T00:06:12;4.38;3.93;3.04;1.86;14.94;14.90;14.69;13.54;10.00;0.81
71804;SPS30;59654;52.216;5.616;2023-12-20T00:06:43;4.72;4.22;3.24;1.96;15.74;15.69;15.46;14.21;10.42;0.82
71804;SPS30;59654;52.216;5.616;2023-12-20T00:07:15;5.05;4.53;3.51;2.16;17.38;17.33;17.09;15.78;11.69;0.80
71804;SPS30;59654;52.216;5.616;2023-12-20T00:07:46;3.79;3.40;2.64;1.63;13.09;13.06;12.88;11.90;8.82;0.80
71804;SPS30;59654;52.216;5.616;2023-12-20T00:08:16;4.48;4.02;3.11;1.91;15.34;15.30;15.08;13.92;10.28;0.80
71804;SPS30;59654;52.216;5.616;2023-12-20T00:08:48;4.41;3.95;3.05;1.86;14.92;14.87;14.66;13.50;9.94;0.81
71804;SPS30;59654;52.216;5.616;2023-12-20T00:09:19;5.21;4.66;3.59;2.17;17.43;17.38;17.13;15.75;11.55;0.81
71804;SPS30;59654;52.216;5.616;2023-12-20T00:09:50;6.02;5.40;4.18;2.57;20.63;20.58;20.29;18.73;13.85;0.80
71804;SPS30;59654;52.216;5.616;2023-12-20T00:10:21;5.09;4.57;3.55;2.19;17.60;17.55;17.31;16.00;11.87;0.80
71804;SPS30;59654;52.216;5.616;2023-12-20T00:10:52;4.90;4.39;3.39;2.08;16.70;16.65;16.41;15.14;11.18;0.81
71804;SPS30;59654;52.216;5.616;2023-12-20T00:11:22;5.35;4.79;3.69;2.23;17.95;17.89;17.63;16.22;11.91;0.81
71804;SPS30;59654;52.216;5.616;2023-12-20T00:11:54;5.42;4.84;3.72;2.24;17.99;17.94;17.67;16.24;11.88;0.81
71804;SPS30;59654;52.216;5.616;2023-12-20T00:12:24;5.76;5.17;4.00;2.45;19.70;19.65;19.37;17.87;13.20;0.79
71804;SPS30;59654;52.216;5.616;2023-12-20T00:12:55;6.04;5.41;4.19;2.56;20.59;20.53;20.24;18.67;13.78;0.80
71804;SPS30;59654;52.216;5.616;2023-12-20T00:13:26;6.10;5.46;4.22;2.58;20.75;20.69;20.40;18.81;13.87;0.81
71804;SPS30;59654;52.216;5.616;2023-12-20T00:13:57;5.53;4.95;3.81;2.31;18.60;18.54;18.27;16.82;12.36;0.82
71804;SPS30;59654;52.216;5.616;2023-12-20T00:14:28;5.89;5.27;4.07;2.47;19.87;19.81;19.52;17.98;13.22;0.81
71804;SPS30;59654;52.216;5.616;2023-12-20T00:14:59;5.45;4.89;3.78;2.31;18.55;18.50;18.24;16.82;12.40;0.81
71804;SPS30;59654;52.216;5.616;2023-12-20T00:15:29;4.74;4.25;3.28;2.01;16.12;16.08;15.85;14.61;10.78;0.82
71804;SPS30;59654;52.216;5.616;2023-12-20T00:16:00;5.30;4.74;3.66;2.22;17.88;17.83;17.57;16.18;11.90;0.82
71804;SPS30;59654;52.216;5.616;2023-12-20T00:16:31;6.43;5.75;4.42;2.67;21.43;21.37;21.06;19.35;14.17;0.81
71804;SPS30;59654;52.216;5.616;2023-12-20T00:17:02;5.88;5.25;4.03;2.42;19.49;19.43;19.14;17.58;12.85;0.83
71804;SPS30;59654;52.216;5.616;2023-12-20T00:17:33;4.49;4.01;3.08;1.84;14.82;14.78;14.56;13.36;9.75;0.82
71804;SPS30;59654;52.216;5.616;2023-12-20T00:18:03;4.68;4.18;3.22;1.94;15.59;15.54;15.31;14.07;10.31;0.82
71804;SPS30;59654;52.216;5.616;2023-12-20T00:18:35;5.14;4.60;3.54;2.14;17.24;17.19;16.93;15.58;11.44;0.81
71804;SPS30;59654;52.216;5.616;2023-12-20T00:19:06;5.26;4.70;3.60;2.16;17.37;17.32;17.06;15.66;11.43;0.82
71804;SPS30;59654;52.216;5.616;2023-12-20T00:19:37;5.93;5.28;4.02;2.36;18.95;18.90;18.59;16.98;12.24;0.84
71804;SPS30;59654;52.216;5.616;2023-12-20T00:20:09;5.57;4.96;3.76;2.20;17.67;17.61;17.33;15.80;11.36;0.84
71804;SPS30;59654;52.216;5.616;2023-12-20T00:20:40;4.37;3.89;2.95;1.71;13.77;13.73;13.51;12.30;8.82;0.84
71804;SPS30;59654;52.216;5.616;2023-12-20T00:21:11;4.98;4.44;3.37;1.97;15.88;15.83;15.58;14.22;10.24;0.83
71804;SPS30;59654;52.216;5.616;2023-12-20T00:21:42;5.67;5.06;3.85;2.27;18.23;18.17;17.88;16.34;11.81;0.82
71804;SPS30;59654;52.216;5.616;2023-12-20T00:22:12;5.41;4.84;3.71;2.22;17.87;17.82;17.55;16.11;11.76;0.81
71804;SPS30;59654;52.216;5.616;2023-12-20T00:22:43;5.74;5.13;3.92;2.34;18.79;18.73;18.45;16.90;12.30;0.83
71804;SPS30;59654;52.216;5.616;2023-12-20T00:23:14;5.38;4.80;3.67;2.18;17.49;17.44;17.17;15.72;11.41;0.84
71804;SPS30;59654;52.216;5.616;2023-12-20T00:23:45;5.25;4.69;3.59;2.15;17.32;17.27;17.01;15.61;11.40;0.83
71804;SPS30;59654;52.216;5.616;2023-12-20T00:24:16;5.18;4.63;3.57;2.16;17.39;17.34;17.08;15.72;11.55;0.82
71804;SPS30;59654;52.216;5.616;2023-12-20T00:24:47;5.13;4.60;3.57;2.20;17.68;17.63;17.39;16.07;11.91;0.81
71804;SPS30;59654;52.216;5.616;2023-12-20T00:25:18;5.23;4.70;3.67;2.29;18.43;18.38;18.14;16.81;12.55;0.80
71804;SPS30;59654;52.216;5.616;2023-12-20T00:25:48;6.16;5.54;4.32;2.71;21.74;21.68;21.39;19.84;14.82;0.81
71804;SPS30;59654;52.216;5.616;2023-12-20T00:26:20;5.86;5.27;4.10;2.55;20.47;20.42;20.14;18.64;13.87;0.81
71804;SPS30;59654;52.216;5.616;2023-12-20T00:26:50;5.15;4.63;3.61;2.25;18.11;18.06;17.82;16.52;12.32;0.81
71804;SPS30;59654;52.216;5.616;2023-12-20T00:27:22;5.19;4.65;3.60;2.21;17.79;17.75;17.50;16.15;11.95;0.82
71804;SPS30;59654;52.216;5.616;2023-12-20T00:27:53;5.00;4.48;3.45;2.09;16.78;16.73;16.49;15.17;11.14;0.83
71804;SPS30;59654;52.216;5.616;2023-12-20T00:28:24;4.54;4.06;3.14;1.91;15.33;15.29;15.06;13.88;10.21;0.82
71804;SPS30;59654;52.216;5.616;2023-12-20T00:28:55;4.40;3.95;3.06;1.89;15.15;15.11;14.90;13.76;10.19;0.81
71804;SPS30;59654;52.216;5.616;2023-12-20T00:29:26;5.37;4.83;3.77;2.36;18.93;18.88;18.63;17.27;12.89;0.80
71804;SPS30;59654;52.216;5.616;2023-12-20T00:29:57;5.60;5.04;3.95;2.48;19.93;19.88;19.61;18.21;13.63;0.80
71804;SPS30;59654;52.216;5.616;2023-12-20T00:30:28;4.88;4.39;3.44;2.16;17.39;17.34;17.12;15.89;11.90;0.80
71804;SPS30;59654;52.216;5.616;2023-12-20T00:30:59;4.50;4.05;3.17;2.00;16.03;15.99;15.78;14.65;10.97;0.80
71804;SPS30;59654;52.216;5.616;2023-12-20T00:31:30;4.91;4.41;3.44;2.14;17.17;17.13;16.90;15.64;11.64;0.81
71804;SPS30;59654;52.216;5.616;2023-12-20T00:32:00;5.02;4.50;3.49;2.15;17.26;17.21;16.97;15.67;11.60;0.81
71804;SPS30;59654;52.216;5.616;2023-12-20T00:32:32;5.38;4.82;3.71;2.24;18.00;17.95;17.69;16.27;11.93;0.82
71804;SPS30;59654;52.216;5.616;2023-12-20T00:33:02;4.56;4.08;3.15;1.92;15.41;15.37;15.14;13.95;10.27;0.81
71804;SPS30;59654;52.216;5.616;2023-12-20T00:33:33;4.68;4.21;3.28;2.05;16.46;16.42;16.20;15.01;11.19;0.79
71804;SPS30;59654;52.216;5.616;2023-12-20T00:34:04;5.28;4.75;3.72;2.34;18.80;18.75;18.50;17.18;12.86;0.79
71804;SPS30;59654;52.216;5.616;2023-12-20T00:34:35;5.53;4.98;3.89;2.45;19.65;19.60;19.34;17.95;13.43;0.79
71804;SPS30;59654;52.216;5.616;2023-12-20T00:35:06;5.37;4.83;3.78;2.38;19.10;19.06;18.80;17.45;13.06;0.80
71804;SPS30;59654;52.216;5.616;2023-12-20T00:35:37;5.07;4.55;3.53;2.18;17.53;17.49;17.24;15.94;11.82;0.82
71804;SPS30;59654;52.216;5.616;2023-12-20T00:36:08;4.81;4.30;3.30;1.98;15.88;15.84;15.60;14.32;10.45;0.84
71804;SPS30;59654;52.216;5.616;2023-12-20T00:36:39;5.13;4.58;3.50;2.09;16.79;16.74;16.49;15.11;11.00;0.84
71804;SPS30;59654;52.216;5.616;2023-12-20T00:37:10;5.64;5.04;3.87;2.32;18.66;18.60;18.33;16.83;12.29;0.83
71804;SPS30;59654;52.216;5.616;2023-12-20T00:37:41;6.30;5.62;4.28;2.53;20.36;20.30;19.98;18.28;13.24;0.85
71804;SPS30;59654;52.216;5.616;2023-12-20T00:38:13;7.35;6.53;4.93;2.85;22.90;22.82;22.44;20.41;14.57;0.86
71804;SPS30;59654;52.216;5.616;2023-12-20T00:38:45;6.04;5.38;4.07;2.37;19.03;18.97;18.66;16.99;12.18;0.86
71804;SPS30;59654;52.216;5.616;2023-12-20T00:39:15;6.02;5.36;4.08;2.38;19.18;19.12;18.82;17.17;12.36;0.84
71804;SPS30;59654;52.216;5.616;2023-12-20T00:39:46;5.93;5.29;4.03;2.38;19.16;19.10;18.80;17.19;12.45;0.83
71804;SPS30;59654;52.216;5.616;2023-12-20T00:40:17;5.65;5.05;3.86;2.31;18.55;18.49;18.21;16.70;12.16;0.83
71804;SPS30;59654;52.216;5.616;2023-12-20T00:40:48;5.24;4.68;3.58;2.14;17.21;17.15;16.89;15.49;11.29;0.83
71804;SPS30;59654;52.216;5.616;2023-12-20T00:41:19;6.35;5.68;4.37;2.64;21.23;21.17;20.85;19.18;14.06;0.82
71804;SPS30;59654;52.216;5.616;2023-12-20T00:41:50;5.94;5.33;4.13;2.55;20.48;20.42;20.14;18.61;13.79;0.81
71804;SPS30;59654;52.216;5.616;2023-12-20T00:42:21;5.08;4.57;3.57;2.24;17.97;17.92;17.68;16.40;12.26;0.79
71804;SPS30;59654;52.216;5.616;2023-12-20T00:42:52;4.91;4.41;3.45;2.17;17.41;17.36;17.13;15.90;11.89;0.80
71804;SPS30;59654;52.216;5.616;2023-12-20T00:43:23;4.70;4.22;3.27;2.00;16.10;16.06;15.83;14.61;10.80;0.81
71804;SPS30;59654;52.216;5.616;2023-12-20T00:43:53;5.19;4.66;3.62;2.24;18.01;17.96;17.71;16.38;12.16;0.80
71804;SPS30;59654;52.216;5.616;2023-12-20T00:44:24;4.65;4.18;3.27;2.05;16.50;16.46;16.24;15.07;11.27;0.79
71804;SPS30;59654;52.216;5.616;2023-12-20T00:44:55;4.54;4.09;3.21;2.03;16.33;16.29;16.08;14.95;11.23;0.79
71804;SPS30;59654;52.216;5.616;2023-12-20T00:45:29;4.57;4.12;3.25;2.08;16.69;16.65;16.44;15.31;11.56;0.78
71804;SPS30;59654;52.216;5.616;2023-12-20T00:45:59;4.37;3.95;3.12;2.02;16.19;16.15;15.95;14.89;11.29;0.78
71804;SPS30;59654;52.216;5.616;2023-12-20T00:46:30;4.52;4.09;3.24;2.10;16.87;16.83;16.63;15.53;11.80;0.78
71804;SPS30;59654;52.216;5.616;2023-12-20T00:47:01;4.96;4.48;3.56;2.31;18.50;18.46;18.24;17.04;12.95;0.77
71804;SPS30;59654;52.216;5.616;2023-12-20T00:47:32;4.35;3.93;3.11;2.01;16.13;16.09;15.89;14.84;11.25;0.78
71804;SPS30;59654;52.216;5.616;2023-12-20T00:48:03;4.56;4.12;3.25;2.09;16.81;16.77;16.56;15.45;11.70;0.78
71804;SPS30;59654;52.216;5.616;2023-12-20T00:48:34;5.27;4.76;3.77;2.42;19.47;19.42;19.18;17.90;13.55;0.79
71804;SPS30;59654;52.216;5.616;2023-12-20T00:49:05;4.83;4.35;3.43;2.20;17.64;17.59;17.37;16.19;12.22;0.79
71804;SPS30;59654;52.216;5.616;2023-12-20T00:49:36;5.36;4.83;3.81;2.43;19.52;19.47;19.23;17.91;13.51;0.79
71804;SPS30;59654;52.216;5.616;2023-12-20T00:50:07;5.66;5.09;3.99;2.51;20.16;20.11;19.84;18.42;13.79;0.80
71804;SPS30;59654;52.216;5.616;2023-12-20T00:50:39;4.88;4.39;3.44;2.17;17.44;17.39;17.17;15.94;11.95;0.79
71804;SPS30;59654;52.216;5.616;2023-12-20T00:51:10;4.41;3.97;3.11;1.96;15.72;15.68;15.48;14.37;10.76;0.80
71804;SPS30;59654;52.216;5.616;2023-12-20T00:51:41;5.40;4.87;3.82;2.42;19.41;19.36;19.11;17.76;13.34;0.80
71804;SPS30;59654;52.216;5.616;2023-12-20T00:52:11;5.44;4.91;3.87;2.48;19.89;19.85;19.60;18.26;13.79;0.79
71804;SPS30;59654;52.216;5.616;2023-12-20T00:52:42;4.75;4.28;3.36;2.13;17.10;17.06;16.84;15.65;11.76;0.80
71804;SPS30;59654;52.216;5.616;2023-12-20T00:53:13;5.51;4.96;3.90;2.47;19.80;19.75;19.50;18.12;13.61;0.80
71804;SPS30;59654;52.216;5.616;2023-12-20T00:53:44;5.65;5.09;3.99;2.53;20.29;20.24;19.97;18.56;13.93;0.79
71804;SPS30;59654;52.216;5.616;2023-12-20T00:54:16;5.73;5.16;4.04;2.55;20.47;20.42;20.15;18.71;14.02;0.79
71804;SPS30;59654;52.216;5.616;2023-12-20T00:54:47;5.50;4.95;3.88;2.45;19.70;19.65;19.40;18.02;13.52;0.78
71804;SPS30;59654;52.216;5.616;2023-12-20T00:55:18;6.43;5.78;4.51;2.82;22.62;22.56;22.26;20.63;15.39;0.80
71804;SPS30;59654;52.216;5.616;2023-12-20T00:55:49;5.20;4.67;3.63;2.24;18.02;17.98;17.73;16.39;12.17;0.80
71804;SPS30;59654;52.216;5.616;2023-12-20T00:56:20;5.73;5.14;3.99;2.46;19.76;19.71;19.43;17.95;13.30;0.80
71804;SPS30;59654;52.216;5.616;2023-12-20T00:56:51;5.55;4.98;3.85;2.36;18.97;18.91;18.64;17.20;12.71;0.81
71804;SPS30;59654;52.216;5.616;2023-12-20T00:57:22;5.05;4.53;3.50;2.14;17.23;17.19;16.94;15.63;11.54;0.80
71804;SPS30;59654;52.216;5.616;2023-12-20T00:57:53;5.40;4.84;3.75;2.31;18.56;18.51;18.25;16.86;12.48;0.80
71804;SPS30;59654;52.216;5.616;2023-12-20T00:58:24;4.88;4.39;3.44;2.16;17.37;17.33;17.10;15.88;11.89;0.78
71804;SPS30;59654;52.216;5.616;2023-12-20T00:58:55;4.89;4.41;3.46;2.20;17.63;17.59;17.36;16.15;12.14;0.77
71804;SPS30;59654;52.216;5.616;2023-12-20T00:59:31;6.25;5.62;4.39;2.76;22.14;22.08;21.79;20.21;15.11;0.79
71804;SPS30;59654;52.216;5.616;2023-12-20T01:00:03;5.22;4.70;3.68;2.32;18.62;18.57;18.33;17.02;12.75;0.78
71804;SPS30;59654;52.216;5.616;2023-12-20T01:00:35;5.31;4.79;3.76;2.39;19.20;19.16;18.91;17.60;13.24;0.78
71804;SPS30;59654;52.216;5.616;2023-12-20T01:01:05;4.39;3.96;3.11;1.97;15.85;15.81;15.61;14.52;10.92;0.79
71804;SPS30;59654;52.216;5.616;2023-12-20T01:01:36;4.20;3.78;2.97;1.87;15.05;15.01;14.82;13.77;10.33;0.79
71804;SPS30;59654;52.216;5.616;2023-12-20T01:02:07;5.87;5.28;4.13;2.60;20.90;20.85;20.57;19.10;14.31;0.79
71804;SPS30;59654;52.216;5.616;2023-12-20T01:02:39;4.28;3.85;3.01;1.88;15.13;15.10;14.89;13.81;10.33;0.81
71804;SPS30;59654;52.216;5.616;2023-12-20T01:03:10;5.08;4.56;3.53;2.18;17.50;17.45;17.21;15.90;11.78;0.82
71804;SPS30;59654;52.216;5.616;2023-12-20T01:03:41;4.85;4.35;3.38;2.09;16.82;16.77;16.54;15.30;11.36;0.80
71804;SPS30;59654;52.216;5.616;2023-12-20T01:04:12;5.13;4.61;3.58;2.22;17.81;17.77;17.52;16.20;12.03;0.80
71804;SPS30;59654;52.216;5.616;2023-12-20T01:04:43;4.83;4.34;3.38;2.11;16.95;16.90;16.68;15.45;11.52;0.80
71804;SPS30;59654;52.216;5.616;2023-12-20T01:05:13;5.03;4.52;3.52;2.19;17.57;17.52;17.29;16.00;11.91;0.80
71804;SPS30;59654;52.216;5.616;2023-12-20T01:05:44;5.58;5.02;3.92;2.46;19.73;19.67;19.41;18.00;13.45;0.81
71804;SPS30;59654;52.216;5.616;2023-12-20T01:06:15;5.94;5.35;4.18;2.63;21.11;21.05;20.77;19.28;14.42;0.81
71804;SPS30;59654;52.216;5.616;2023-12-20T01:06:46;6.17;5.54;4.33;2.70;21.69;21.64;21.35;19.78;14.75;0.83
71804;SPS30;59654;52.216;5.616;2023-12-20T01:07:17;4.89;4.39;3.42;2.13;17.10;17.05;16.82;15.58;11.60;0.83
71804;SPS30;59654;52.216;5.616;2023-12-20T01:07:48;4.41;3.96;3.09;1.93;15.52;15.48;15.28;14.16;10.57;0.81
71804;SPS30;59654;52.216;5.616;2023-12-20T01:08:19;4.54;4.09;3.19;2.00;16.06;16.02;15.80;14.66;10.95;0.80
71804;SPS30;59654;52.216;5.616;2023-12-20T01:08:50;5.05;4.54;3.56;2.24;18.01;17.96;17.73;16.46;12.33;0.79
71804;SPS30;59654;52.216;5.616;2023-12-20T01:09:20;4.76;4.30;3.39;2.16;17.37;17.32;17.10;15.93;12.02;0.78
71804;SPS30;59654;52.216;5.616;2023-12-20T01:09:53;4.75;4.30;3.42;2.22;17.84;17.80;17.58;16.44;12.51;0.76
71804;SPS30;59654;52.216;5.616;2023-12-20T01:10:24;4.78;4.32;3.44;2.24;17.96;17.92;17.70;16.56;12.61;0.77
71804;SPS30;59654;52.216;5.616;2023-12-20T01:10:58;4.50;4.07;3.23;2.10;16.88;16.84;16.64;15.56;11.84;0.77
71804;SPS30;59654;52.216;5.616;2023-12-20T01:11:29;4.17;3.76;2.98;1.92;15.39;15.35;15.16;14.15;10.72;0.78
71804;SPS30;59654;52.216;5.616;2023-12-20T01:11:59;4.44;4.00;3.15;2.01;16.15;16.11;15.90;14.81;11.17;0.79
71804;SPS30;59654;52.216;5.616;2023-12-20T01:12:30;4.08;3.69;2.92;1.88;15.08;15.05;14.86;13.87;10.50;0.78
71804;SPS30;59654;52.216;5.616;2023-12-20T01:13:01;4.60;4.15;3.27;2.09;16.76;16.72;16.51;15.37;11.59;0.79
71804;SPS30;59654;52.216;5.616;2023-12-20T01:13:32;5.54;4.98;3.88;2.42;19.43;19.38;19.12;17.71;13.20;0.80
71804;SPS30;59654;52.216;5.616;2023-12-20T01:14:03;5.08;4.58;3.59;2.26;18.18;18.14;17.90;16.63;12.47;0.79
71804;SPS30;59654;52.216;5.616;2023-12-20T01:14:34;4.02;3.62;2.83;1.78;14.32;14.29;14.10;13.09;9.80;0.78
71804;SPS30;59654;52.216;5.616;2023-12-20T01:15:05;4.71;4.23;3.31;2.07;16.62;16.57;16.35;15.16;11.32;0.79
71804;SPS30;59654;52.216;5.616;2023-12-20T01:15:36;5.75;5.16;4.01;2.47;19.86;19.80;19.53;18.05;13.38;0.81
71804;SPS30;59654;52.216;5.616;2023-12-20T01:16:08;5.86;5.25;4.06;2.48;19.91;19.85;19.57;18.04;13.30;0.83
71804;SPS30;59654;52.216;5.616;2023-12-20T01:16:41;6.27;5.60;4.29;2.57;20.63;20.57;20.26;18.58;13.54;0.85
71804;SPS30;59654;52.216;5.616;2023-12-20T01:17:12;5.88;5.24;4.01;2.39;19.19;19.13;18.84;17.26;12.55;0.85
71804;SPS30;59654;52.216;5.616;2023-12-20T01:17:43;5.96;5.31;4.04;2.37;19.06;19.00;18.69;17.07;12.32;0.86
71804;SPS30;59654;52.216;5.616;2023-12-20T01:18:14;5.26;4.69;3.58;2.11;16.98;16.92;16.66;15.23;11.03;0.86
71804;SPS30;59654;52.216;5.616;2023-12-20T01:18:44;4.82;4.30;3.27;1.92;15.43;15.38;15.14;13.82;9.97;0.87
71804;SPS30;59654;52.216;5.616;2023-12-20T01:19:15;5.21;4.65;3.56;2.12;17.08;17.03;16.77;15.37;11.19;0.85
71804;SPS30;59654;52.216;5.616;2023-12-20T01:19:46;6.05;5.41;4.16;2.51;20.17;20.11;19.81;18.21;13.33;0.85
71804;SPS30;59654;52.216;5.616;2023-12-20T01:20:17;5.63;5.04;3.88;2.35;18.93;18.87;18.60;17.12;12.57;0.84
71804;SPS30;59654;52.216;5.616;2023-12-20T01:20:50;5.53;4.96;3.85;2.37;19.04;18.99;18.72;17.29;12.81;0.83
71804;SPS30;59654;52.216;5.616;2023-12-20T01:21:21;5.61;5.04;3.94;2.46;19.78;19.73;19.47;18.05;13.48;0.82
71804;SPS30;59654;52.216;5.616;2023-12-20T01:21:51;5.25;4.74;3.73;2.38;19.14;19.09;18.85;17.55;13.24;0.80
71804;SPS30;59654;52.216;5.616;2023-12-20T01:22:22;5.40;4.87;3.83;2.44;19.57;19.52;19.28;17.94;13.51;0.81
71804;SPS30;59654;52.216;5.616;2023-12-20T01:22:53;4.49;4.04;3.17;2.00;16.05;16.01;15.80;14.68;11.01;0.81
71804;SPS30;59654;52.216;5.616;2023-12-20T01:23:24;5.04;4.53;3.54;2.22;17.82;17.77;17.53;16.26;12.15;0.82
71804;SPS30;59654;52.216;5.616;2023-12-20T01:23:55;4.76;4.28;3.33;2.07;16.59;16.55;16.32;15.11;11.23;0.82
71804;SPS30;59654;52.216;5.616;2023-12-20T01:24:25;5.45;4.88;3.77;2.30;18.50;18.44;18.18;16.75;12.35;0.83
71804;SPS30;59654;52.216;5.616;2023-12-20T01:24:56;5.72;5.12;3.93;2.37;19.03;18.98;18.70;17.18;12.57;0.85
71804;SPS30;59654;52.216;5.616;2023-12-20T01:25:27;5.19;4.64;3.56;2.14;17.19;17.14;16.88;15.50;11.32;0.84
71804;SPS30;59654;52.216;5.616;2023-12-20T01:25:58;5.54;4.96;3.82;2.32;18.63;18.58;18.31;16.85;12.38;0.84
71804;SPS30;59654;52.216;5.616;2023-12-20T01:26:32;4.59;4.12;3.20;1.98;15.89;15.85;15.63;14.45;10.72;0.82
71804;SPS30;59654;52.216;5.616;2023-12-20T01:27:03;4.16;3.73;2.89;1.77;14.20;14.16;13.96;12.88;9.51;0.84
71804;SPS30;59654;52.216;5.616;2023-12-20T01:27:34;5.60;5.02;3.89;2.40;19.26;19.20;18.94;17.49;12.95;0.82
71804;SPS30;59654;52.216;5.616;2023-12-20T01:28:05;5.03;4.52;3.53;2.20;17.69;17.64;17.41;16.13;12.03;0.83
71804;SPS30;59654;52.216;5.616;2023-12-20T01:28:36;5.33;4.80;3.77;2.39;19.22;19.18;18.93;17.60;13.24;0.82
71804;SPS30;59654;52.216;5.616;2023-12-20T01:29:07;5.07;4.58;3.62;2.32;18.66;18.61;18.38;17.14;12.97;0.81
71804;SPS30;59654;52.216;5.616;2023-12-20T01:29:37;4.85;4.38;3.46;2.23;17.89;17.84;17.63;16.44;12.45;0.81
71804;SPS30;59654;52.216;5.616;2023-12-20T01:30:09;5.02;4.53;3.57;2.27;18.26;18.22;17.99;16.75;12.62;0.81
71804;SPS30;59654;52.216;5.616;2023-12-20T01:30:40;4.54;4.09;3.21;2.03;16.27;16.23;16.01;14.88;11.16;0.82
71804;SPS30;59654;52.216;5.616;2023-12-20T01:31:11;5.02;4.52;3.55;2.26;18.15;18.10;17.87;16.63;12.52;0.81
71804;SPS30;59654;52.216;5.616;2023-12-20T01:31:41;4.42;3.98;3.12;1.96;15.78;15.74;15.53;14.42;10.81;0.82
71804;SPS30;59654;52.216;5.616;2023-12-20T01:32:12;5.23;4.70;3.67;2.29;18.42;18.37;18.13;16.80;12.54;0.82
71804;SPS30;59654;52.216;5.616;2023-12-20T01:32:43;4.90;4.42;3.47;2.21;17.74;17.69;17.47;16.25;12.23;0.80
71804;SPS30;59654;52.216;5.616;2023-12-20T01:33:14;4.72;4.26;3.36;2.15;17.24;17.20;16.98;15.82;11.94;0.80
71804;SPS30;59654;52.216;5.616;2023-12-20T01:33:45;4.91;4.42;3.47;2.20;17.65;17.60;17.38;16.15;12.14;0.82
71804;SPS30;59654;52.216;5.616;2023-12-20T01:34:17;4.25;3.83;3.01;1.90;15.27;15.23;15.03;13.97;10.49;0.81
71804;SPS30;59654;52.216;5.616;2023-12-20T01:34:48;5.45;4.90;3.83;2.40;19.32;19.27;19.01;17.64;13.19;0.82
71804;SPS30;59654;52.216;5.616;2023-12-20T01:35:19;5.64;5.07;3.93;2.43;19.51;19.46;19.19;17.74;13.15;0.83
71804;SPS30;59654;52.216;5.616;2023-12-20T01:35:50;5.59;5.02;3.91;2.43;19.53;19.48;19.22;17.79;13.25;0.82
71804;SPS30;59654;52.216;5.616;2023-12-20T01:36:21;5.35;4.81;3.75;2.34;18.83;18.78;18.53;17.17;12.81;0.82
71804;SPS30;59654;52.216;5.616;2023-12-20T01:36:51;5.17;4.65;3.64;2.29;18.37;18.32;18.08;16.78;12.56;0.82
71804;SPS30;59654;52.216;5.616;2023-12-20T01:37:22;5.18;4.65;3.62;2.25;18.11;18.06;17.82;16.49;12.28;0.82
71804;SPS30;59654;52.216;5.616;2023-12-20T01:37:55;5.37;4.81;3.72;2.27;18.26;18.21;17.95;16.55;12.21;0.83
71804;SPS30;59654;52.216;5.616;2023-12-20T01:38:26;5.32;4.77;3.69;2.26;18.13;18.08;17.82;16.44;12.14;0.83
71804;SPS30;59654;52.216;5.616;2023-12-20T01:38:57;5.34;4.79;3.71;2.28;18.34;18.29;18.03;16.65;12.32;0.84
71804;SPS30;59654;52.216;5.616;2023-12-20T01:39:28;5.47;4.91;3.81;2.35;18.89;18.84;18.58;17.17;12.73;0.83
71804;SPS30;59654;52.216;5.616;2023-12-20T01:39:59;5.48;4.90;3.78;2.30;18.45;18.40;18.13;16.69;12.27;0.85
71804;SPS30;59654;52.216;5.616;2023-12-20T01:40:30;5.27;4.70;3.59;2.13;17.15;17.10;16.83;15.41;11.19;0.86
71804;SPS30;59654;52.216;5.616;2023-12-20T01:41:01;5.29;4.71;3.58;2.10;16.89;16.83;16.56;15.12;10.90;0.86
71804;SPS30;59654;52.216;5.616;2023-12-20T01:41:31;5.54;4.94;3.77;2.23;17.95;17.90;17.62;16.13;11.69;0.86
71804;SPS30;59654;52.216;5.616;2023-12-20T01:42:03;5.77;5.16;3.96;2.37;19.09;19.03;18.74;17.21;12.57;0.86
71804;SPS30;59654;52.216;5.616;2023-12-20T01:42:33;5.90;5.27;4.03;2.40;19.27;19.22;18.92;17.34;12.60;0.86
71804;SPS30;59654;52.216;5.616;2023-12-20T01:43:06;6.50;5.80;4.43;2.63;21.14;21.08;20.75;19.00;13.79;0.86
71804;SPS30;59654;52.216;5.616;2023-12-20T01:43:38;5.71;5.09;3.90;2.32;18.64;18.59;18.30;16.77;12.19;0.85
71804;SPS30;59654;52.216;5.616;2023-12-20T01:44:09;7.14;6.37;4.88;2.92;23.46;23.39;23.03;21.12;15.39;0.85
71804;SPS30;59654;52.216;5.616;2023-12-20T01:44:40;6.25;5.58;4.26;2.53;20.36;20.30;19.99;18.30;13.29;0.85
71804;SPS30;59654;52.216;5.616;2023-12-20T01:45:11;5.50;4.91;3.77;2.26;18.16;18.11;17.84;16.37;11.95;0.84
71804;SPS30;59654;52.216;5.616;2023-12-20T01:45:42;4.84;4.34;3.35;2.05;16.44;16.40;16.16;14.90;10.99;0.83
71804;SPS30;59654;52.216;5.616;2023-12-20T01:46:13;4.67;4.19;3.25;2.00;16.06;16.02;15.79;14.59;10.80;0.83
71804;SPS30;59654;52.216;5.616;2023-12-20T01:46:45;4.77;4.28;3.32;2.04;16.39;16.35;16.12;14.89;11.02;0.84
71804;SPS30;59654;52.216;5.616;2023-12-20T01:47:17;5.42;4.85;3.74;2.26;18.18;18.13;17.86;16.43;12.06;0.85
71804;SPS30;59654;52.216;5.616;2023-12-20T01:47:48;5.97;5.34;4.10;2.48;19.92;19.86;19.57;17.99;13.18;0.84
71804;SPS30;59654;52.216;5.616;2023-12-20T01:48:19;5.95;5.31;4.06;2.41;19.36;19.30;19.00;17.40;12.63;0.87
71804;SPS30;59654;52.216;5.616;2023-12-20T01:48:50;6.98;6.20;4.68;2.68;21.60;21.53;21.16;19.22;13.68;0.89
71804;SPS30;59654;52.216;5.616;2023-12-20T01:49:23;6.96;6.17;4.64;2.64;21.21;21.14;20.78;18.82;13.32;0.90
71804;SPS30;59654;52.216;5.616;2023-12-20T01:49:54;5.64;4.99;3.72;2.07;16.65;16.59;16.29;14.67;10.24;0.91
71804;SPS30;59654;52.216;5.616;2023-12-20T01:50:27;5.75;5.09;3.80;2.12;17.10;17.04;16.73;15.09;10.57;0.91
71804;SPS30;59654;52.216;5.616;2023-12-20T01:50:59;5.90;5.23;3.91;2.20;17.74;17.68;17.37;15.70;11.04;0.91
71804;SPS30;59654;52.216;5.616;2023-12-20T01:51:32;5.56;4.93;3.70;2.10;16.87;16.82;16.52;14.96;10.56;0.90
71804;SPS30;59654;52.216;5.616;2023-12-20T01:52:05;5.67;5.04;3.81;2.20;17.73;17.67;17.38;15.81;11.30;0.88
71804;SPS30;59654;52.216;5.616;2023-12-20T01:52:37;5.40;4.81;3.66;2.15;17.33;17.28;17.00;15.54;11.23;0.87
71804;SPS30;59654;52.216;5.616;2023-12-20T01:53:09;6.05;5.39;4.12;2.44;19.64;19.58;19.28;17.65;12.80;0.86
71804;SPS30;59654;52.216;5.616;2023-12-20T01:53:42;5.39;4.82;3.69;2.21;17.75;17.69;17.43;15.98;11.65;0.86
71804;SPS30;59654;52.216;5.616;2023-12-20T01:54:14;5.58;4.98;3.82;2.29;18.42;18.36;18.09;16.60;12.12;0.86
71804;SPS30;59654;52.216;5.616;2023-12-20T01:54:45;5.92;5.28;4.04;2.41;19.34;19.28;18.99;17.40;12.65;0.86
71804;SPS30;59654;52.216;5.616;2023-12-20T01:55:19;5.62;5.02;3.84;2.28;18.33;18.28;18.00;16.49;11.98;0.86
71804;SPS30;59654;52.216;5.616;2023-12-20T01:55:51;5.63;5.01;3.82;2.25;18.07;18.01;17.73;16.20;11.70;0.87
71804;SPS30;59654;52.216;5.616;2023-12-20T01:56:27;5.67;5.05;3.84;2.24;18.05;17.99;17.70;16.15;11.63;0.87